Mabel, MN (55954)

11:40 PM CDT on August 31, 2015 (GMT -0500)
East of Mabel | | Change Station
CLOSE
Current Station
Personal Weather Station
Location: Mabel, MN
Elevation: 1184 ft
Nearby Weather Stations

Elev 1184 ft 43.52 °N, 91.72 °W | Updated 4 seconds ago

Partly Cloudy
Partly Cloudy
72.5 °F
Feels Like 72.5 °F
N
1.1
Wind Variable Wind from North
Gusts 2.5 mph

Today
High -- | Low -- °F
--% Chance of Precip.
Yesterday
High -- | Low -- °F
Precip. -- in
6:29 AM 7:44 PM
Waning Gibbous, 91% visible
Pressure 29.97 in
Visibility 6.0 miles
Clouds Few 3500 ft
Mostly Cloudy 4300 ft
Overcast 7000 ft
Dew Point 70 °F
Humidity 93%
Rainfall 0.00 in
Snow Depth Not available.
UV 0.0 out of 12
Pollen 10.90 out of 12
Air Quality Not available.
Flu Activity Not available.
METAR KDEH 010435Z AUTO 16006KT 6SM BR FEW035 BKN043 OVC070 23/22 A2997 RMK AO2
Pressure 29.97 in
Visibility 6.0 miles
Clouds Few 3500 ft
Mostly Cloudy 4300 ft
Overcast 7000 ft
Dew Point 70 °F
Humidity 93%
Rainfall 0.00 in
Snow Depth Not available.
UV 0.0 out of 12
Pollen 10.90 out of 12
Air Quality Not available.
Flu Activity Not available.
METAR KDEH 010435Z AUTO 16006KT 6SM BR FEW035 BKN043 OVC070 23/22 A2997 RMK AO2

10-Day Weather Forecast

×

Almanac

Astronomy

Aug. 31, 2015 Rise Set
Actual Time
Civil Twilight
Nautical Twilight
Astronomical Twilight
Moon
Length of Visible Light
Length of Day
Tomorrow will be .
, % of the Moon is Illuminated

Today's Extremes

State Highs State Lows

Community

WunderPhotos

Upload Photos

1,851,479 photos uploaded!

WunderBlogs® & News

Nearby

Air Quality

  Air Quality AQ Index Pollutant
Not available.

Snow Depth

Station Depth Elevation

Earthquake Activity

City Distance Mag. Time & Date
Minimum magnitude displayed is 2.5.

Coastal Water Temperatures

Place Temperature

Stations

Nearby Weather Stations

Station Location Temp. Windchill Dew Point Humidity Wind Precip. Elev Updated Type